Time;durP1;ratioP1;P1;durP2;ratioP2;P2;SDS_P1;SDS_P2;PMS_P1;PMS_P2;Temp;Humidity;BMP_temperature;BMP_pressure;BME280_temperature;BME280_humidity;BME280_pressure;Samples;Min_cycle;Max_cycle;Signal;HPM_P1;HPM_P2
2023/10/21 00:00:20;;;;;;;;;;;;;;;10.26;100.00;98372.56;5012153;28;20380;-73
2023/10/21 00:02:46;;;;;;;;;;;;;;;10.24;100.00;98381.78;5009390;28;19928;-73
2023/10/21 00:05:11;;;;;;;;;;;;;;;10.18;100.00;98377.97;5005876;28;20303;-73
2023/10/21 00:07:37;;;;;;;;;;;;;;;10.17;100.00;98370.94;5007235;28;19928;-73
2023/10/21 00:10:05;;;;;;;;;;;;;;;10.14;100.00;98382.88;5022707;28;19925;-73
2023/10/21 00:12:30;;;;;;;;;;;;;;;10.12;100.00;98382.22;5004051;28;19921;-74
2023/10/21 00:14:55;;;;;;;;;;;;;;;10.11;100.00;98390.41;5010332;28;19964;-74
2023/10/21 00:17:21;;;;;;;;;;;;;;;10.11;100.00;98398.47;4992381;28;19925;-74
2023/10/21 00:19:46;;;;;;;;;;;;;;;10.10;100.00;98399.47;5013426;28;20239;-73
2023/10/21 00:22:11;;;;;;;;;;;;;;;10.05;100.00;98403.53;4991848;28;19932;-73
2023/10/21 00:24:36;;;;;;;;;;;;;;;10.00;100.00;98410.41;4995500;28;19917;-74
2023/10/21 00:27:02;;;;;;;;;;;;;;;9.97;100.00;98410.75;5011513;28;19964;-74
2023/10/21 00:29:27;;;;;;;;;;;;;;;9.93;100.00;98417.50;5012268;28;20267;-73
2023/10/21 00:31:52;;;;;;;;;;;;;;;9.91;100.00;98415.00;4998132;28;19925;-74
2023/10/21 00:34:17;;;;;;;;;;;;;;;9.93;100.00;98422.88;5014632;28;19979;-74
2023/10/21 00:36:42;;;;;;;;;;;;;;;9.90;100.00;98426.72;5001491;28;19927;-74
2023/10/21 00:39:10;;;;;;;;;;;;;;;9.89;100.00;98433.09;5012896;28;19921;-74
2023/10/21 00:41:36;;;;;;;;;;;;;;;9.96;100.00;98430.53;5019255;28;19932;-74
2023/10/21 00:44:02;;;;;;;;;;;;;;;9.93;100.00;98447.00;5013994;28;19921;-72
2023/10/21 00:46:27;;;;;;;;;;;;;;;9.99;100.00;98451.63;5001124;28;19930;-71
2023/10/21 00:48:52;;;;;;;;;;;;;;;10.05;100.00;98448.25;5001799;28;20072;-72
2023/10/21 00:51:17;;;;;;;;;;;;;;;10.11;100.00;98446.72;5004472;28;19960;-73
2023/10/21 00:53:43;;;;;;;;;;;;;;;10.08;100.00;98452.44;5007602;28;19925;-74
2023/10/21 00:56:08;;;;;;;;;;;;;;;10.05;100.00;98457.16;5016003;28;19920;-74
2023/10/21 00:58:34;;;;;;;;;;;;;;;10.01;100.00;98463.88;5012356;28;20346;-72
2023/10/21 01:01:01;;;;;;;;;;;;;;;10.03;100.00;98472.59;5011370;28;20408;-74
2023/10/21 01:03:27;;;;;;;;;;;;;;;10.00;100.00;98469.41;5009439;28;19921;-74
2023/10/21 01:05:52;;;;;;;;;;;;;;;10.00;100.00;98478.28;5009960;28;19925;-73
2023/10/21 01:08:17;;;;;;;;;;;;;;;10.06;100.00;98480.25;5023579;28;19991;-73
2023/10/21 01:10:43;;;;;;;;;;;;;;;10.13;100.00;98479.56;5025674;28;20052;-73
2023/10/21 01:13:08;;;;;;;;;;;;;;;10.21;100.00;98484.91;4996597;28;19967;-73
2023/10/21 01:15:33;;;;;;;;;;;;;;;10.19;100.00;98489.59;5026754;28;19999;-72
2023/10/21 01:17:58;;;;;;;;;;;;;;;10.22;100.00;98486.56;5009679;28;20299;-73
2023/10/21 01:20:24;;;;;;;;;;;;;;;10.20;100.00;98497.44;5012475;28;20256;-73
2023/10/21 01:22:49;;;;;;;;;;;;;;;10.25;100.00;98490.72;5029802;28;19921;-72
2023/10/21 01:25:14;;;;;;;;;;;;;;;10.29;100.00;98494.75;5031544;28;20370;-73
2023/10/21 01:27:39;;;;;;;;;;;;;;;10.31;100.00;98487.34;5016580;28;20260;-72
2023/10/21 01:30:05;;;;;;;;;;;;;;;10.34;100.00;98495.88;5029297;28;20035;-74
2023/10/21 01:32:31;;;;;;;;;;;;;;;10.34;100.00;98495.06;4996495;28;19924;-74
2023/10/21 01:34:56;;;;;;;;;;;;;;;10.28;100.00;98511.84;5008711;28;19967;-73
2023/10/21 01:37:21;;;;;;;;;;;;;;;10.29;100.00;98509.00;5007610;28;20522;-73
2023/10/21 01:39:46;;;;;;;;;;;;;;;10.26;100.00;98506.66;5006289;28;19956;-72
2023/10/21 01:42:12;;;;;;;;;;;;;;;10.17;100.00;98518.44;5012007;28;20043;-72
2023/10/21 01:44:37;;;;;;;;;;;;;;;10.13;100.00;98503.69;5023783;28;20429;-73
2023/10/21 01:47:02;;;;;;;;;;;;;;;10.20;100.00;98507.34;5008484;28;19935;-72
2023/10/21 01:49:27;;;;;;;;;;;;;;;10.21;100.00;98507.16;5008173;28;20434;-72
2023/10/21 01:51:53;;;;;;;;;;;;;;;10.21;100.00;98507.16;5004468;28;20040;-73
2023/10/21 01:54:18;;;;;;;;;;;;;;;10.24;100.00;98507.84;5000086;28;20594;-73
2023/10/21 01:56:45;;;;;;;;;;;;;;;10.28;100.00;98510.00;5008954;28;20359;-73
2023/10/21 01:59:10;;;;;;;;;;;;;;;10.35;100.00;98515.50;5021384;28;20387;-72
2023/10/21 02:01:35;;;;;;;;;;;;;;;10.34;100.00;98514.66;5012396;28;20172;-72
2023/10/21 02:04:00;;;;;;;;;;;;;;;10.34;100.00;98517.34;5014807;28;19963;-72
2023/10/21 02:06:26;;;;;;;;;;;;;;;10.39;100.00;98524.06;5015433;28;20324;-73
2023/10/21 02:08:51;;;;;;;;;;;;;;;10.42;100.00;98529.94;5015587;28;19932;-72
2023/10/21 02:11:19;;;;;;;;;;;;;;;10.38;100.00;98539.31;5015131;28;19928;-72
2023/10/21 02:13:45;;;;;;;;;;;;;;;10.42;100.00;98532.59;5014811;28;19921;-73
2023/10/21 02:16:10;;;;;;;;;;;;;;;10.42;100.00;98535.28;5016118;28;19982;-73
2023/10/21 02:18:36;;;;;;;;;;;;;;;10.41;100.00;98538.13;5015312;28;20496;-74
2023/10/21 02:21:04;;;;;;;;;;;;;;;10.41;100.00;98541.66;5016055;28;20220;-73
2023/10/21 02:23:29;;;;;;;;;;;;;;;10.45;100.00;98542.13;5012537;28;19925;-74
2023/10/21 02:26:00;;;;;;;;;;;;;;;10.56;100.00;98548.97;5017359;28;19929;-72
2023/10/21 02:28:25;;;;;;;;;;;;;;;10.55;100.00;98548.13;5014978;28;20048;-74
2023/10/21 02:30:51;;;;;;;;;;;;;;;10.55;100.00;98558.03;5014574;28;19925;-73
2023/10/21 02:33:16;;;;;;;;;;;;;;;10.60;100.00;98558.34;5016010;28;19950;-71
2023/10/21 02:35:42;;;;;;;;;;;;;;;10.69;100.00;98553.75;5015060;28;19947;-72
2023/10/21 02:38:08;;;;;;;;;;;;;;;10.76;100.00;98552.84;5014014;28;19920;-73
2023/10/21 02:40:33;;;;;;;;;;;;;;;10.82;100.00;98558.53;5013051;28;19983;-73
2023/10/21 02:42:58;;;;;;;;;;;;;;;10.83;100.00;98562.91;5013063;28;19921;-72
2023/10/21 02:45:24;;;;;;;;;;;;;;;10.82;100.00;98564.75;5016924;28;19921;-72
2023/10/21 02:47:49;;;;;;;;;;;;;;;10.85;100.00;98571.63;5017582;28;19987;-71
2023/10/21 02:50:16;;;;;;;;;;;;;;;10.76;100.00;98557.41;5017601;28;20058;-72
2023/10/21 02:52:42;;;;;;;;;;;;;;;10.89;100.00;98581.81;4997356;28;20114;-72
2023/10/21 02:55:08;;;;;;;;;;;;;;;11.00;100.00;98580.56;5008373;28;19968;-72
2023/10/21 02:57:34;;;;;;;;;;;;;;;10.96;100.00;98592.69;5005592;28;20401;-73
2023/10/21 02:59:59;;;;;;;;;;;;;;;11.02;100.00;98596.50;5011231;28;20024;-72
2023/10/21 03:02:24;;;;;;;;;;;;;;;10.96;100.00;98590.00;5010810;28;19925;-72
2023/10/21 03:04:50;;;;;;;;;;;;;;;11.00;100.00;98591.31;4993206;28;19932;-72
2023/10/21 03:07:15;;;;;;;;;;;;;;;11.04;100.00;98599.88;5007941;28;19975;-71
2023/10/21 03:09:40;;;;;;;;;;;;;;;10.99;100.00;98600.38;5011409;28;20347;-72
2023/10/21 03:12:06;;;;;;;;;;;;;;;11.08;100.00;98595.81;5011562;28;19975;-73
2023/10/21 03:14:31;;;;;;;;;;;;;;;11.05;100.00;98606.91;5012672;28;19928;-72
2023/10/21 03:16:56;;;;;;;;;;;;;;;11.04;100.00;98608.75;5013485;28;20363;-72
2023/10/21 03:19:21;;;;;;;;;;;;;;;11.05;100.00;98601.53;5015161;28;19925;-72
2023/10/21 03:21:47;;;;;;;;;;;;;;;10.99;100.00;98605.75;5008224;28;19975;-72
2023/10/21 03:24:12;;;;;;;;;;;;;;;10.99;100.00;98612.97;4993705;28;20016;-72
2023/10/21 03:26:37;;;;;;;;;;;;;;;11.02;100.00;98607.25;5010747;28;20185;-73
2023/10/21 03:29:03;;;;;;;;;;;;;;;10.97;100.00;98625.75;5008923;28;19925;-71
2023/10/21 03:31:28;;;;;;;;;;;;;;;10.90;100.00;98636.34;5009235;28;19921;-72
2023/10/21 03:33:53;;;;;;;;;;;;;;;10.98;100.00;98628.25;5012002;28;19928;-72
2023/10/21 03:36:18;;;;;;;;;;;;;;;11.02;100.00;98634.09;5009959;28;19917;-72
2023/10/21 03:38:44;;;;;;;;;;;;;;;10.96;100.00;98638.34;5016333;28;19936;-73
2023/10/21 03:41:09;;;;;;;;;;;;;;;10.98;100.00;98638.16;5015311;28;20971;-72
2023/10/21 03:43:35;;;;;;;;;;;;;;;10.96;100.00;98641.03;5010811;28;20439;-72
2023/10/21 03:46:04;;;;;;;;;;;;;;;11.02;100.00;98636.78;5014558;28;20356;-71
2023/10/21 03:48:29;;;;;;;;;;;;;;;11.03;100.00;98646.53;5014608;28;20016;-71
2023/10/21 03:51:00;;;;;;;;;;;;;;;11.00;100.00;98653.06;5015535;28;19921;-72
2023/10/21 03:53:26;;;;;;;;;;;;;;;11.08;100.00;98644.16;5008727;28;20157;-72
2023/10/21 03:55:51;;;;;;;;;;;;;;;11.12;100.00;98658.91;5013871;28;19917;-71
2023/10/21 03:58:16;;;;;;;;;;;;;;;11.10;100.00;98664.44;5011527;28;19963;-72
2023/10/21 04:00:41;;;;;;;;;;;;;;;11.12;100.00;98671.47;5011224;28;19921;-72
2023/10/21 04:03:07;;;;;;;;;;;;;;;11.09;100.00;98676.19;5015447;28;19960;-72
2023/10/21 04:05:32;;;;;;;;;;;;;;;11.16;100.00;98680.84;5015150;28;20012;-71
2023/10/21 04:07:58;;;;;;;;;;;;;;;11.16;100.00;98678.16;5014381;28;19948;-72
2023/10/21 04:10:23;;;;;;;;;;;;;;;11.23;100.00;98687.22;5015572;28;20371;-73
2023/10/21 04:12:49;;;;;;;;;;;;;;;11.23;100.00;98693.41;5013675;28;19933;-72
2023/10/21 04:15:14;;;;;;;;;;;;;;;11.20;100.00;98693.75;5012154;28;19956;-71
2023/10/21 04:17:39;;;;;;;;;;;;;;;11.19;100.00;98693.94;5017079;28;19951;-71
2023/10/21 04:20:05;;;;;;;;;;;;;;;11.15;100.00;98698.81;5012219;28;20374;-71
2023/10/21 04:22:30;;;;;;;;;;;;;;;11.12;100.00;98704.56;5015893;28;19940;-71
2023/10/21 04:24:56;;;;;;;;;;;;;;;11.08;100.00;98701.38;5015941;28;19964;-71
2023/10/21 04:27:21;;;;;;;;;;;;;;;11.16;100.00;98721.97;5016425;28;20012;-72
2023/10/21 04:29:46;;;;;;;;;;;;;;;11.14;100.00;98726.69;5015207;28;20011;-73
2023/10/21 04:32:11;;;;;;;;;;;;;;;11.14;100.00;98729.34;5018486;28;19967;-71
2023/10/21 04:34:36;;;;;;;;;;;;;;;11.14;100.00;98736.59;5014068;28;19964;-73
2023/10/21 04:37:02;;;;;;;;;;;;;;;11.15;100.00;98731.03;5018228;28;20474;-72
2023/10/21 04:39:28;;;;;;;;;;;;;;;11.19;100.00;98743.09;5015674;28;20423;-72
2023/10/21 04:41:54;;;;;;;;;;;;;;;11.22;100.00;98739.25;5014285;28;19956;-71
2023/10/21 04:44:19;;;;;;;;;;;;;;;11.31;100.00;98754.28;5010329;28;20364;-71
2023/10/21 04:46:44;;;;;;;;;;;;;;;11.37;100.00;98748.22;5015821;28;19925;-72
2023/10/21 04:49:09;;;;;;;;;;;;;;;11.31;100.00;98748.94;5018568;28;19921;-72
2023/10/21 04:51:34;;;;;;;;;;;;;;;11.32;100.00;98750.59;5018251;28;19925;-72
2023/10/21 04:54:00;;;;;;;;;;;;;;;11.38;100.00;98754.47;5010737;28;19921;-72
2023/10/21 04:56:25;;;;;;;;;;;;;;;11.35;100.00;98752.13;5013900;28;19928;-72
2023/10/21 04:58:50;;;;;;;;;;;;;;;11.47;100.00;98760.63;5010599;28;19975;-72
2023/10/21 05:01:16;;;;;;;;;;;;;;;11.52;100.00;98763.63;5011084;28;20357;-71
2023/10/21 05:03:42;;;;;;;;;;;;;;;11.57;100.00;98763.91;5012580;28;19924;-72
2023/10/21 05:06:07;;;;;;;;;;;;;;;11.57;100.00;98771.13;5012614;28;19917;-71
2023/10/21 05:08:33;;;;;;;;;;;;;;;11.59;100.00;98780.69;5012297;28;19925;-74
2023/10/21 05:10:58;;;;;;;;;;;;;;;11.59;100.00;98774.50;5014524;28;19921;-71
2023/10/21 05:13:23;;;;;;;;;;;;;;;11.57;100.00;98781.88;4994547;28;19999;-71
2023/10/21 05:15:49;;;;;;;;;;;;;;;11.46;100.00;98769.69;5012823;28;19917;-71
2023/10/21 05:18:14;;;;;;;;;;;;;;;11.51;100.00;98786.13;5012392;28;20184;-71
2023/10/21 05:20:39;;;;;;;;;;;;;;;11.48;100.00;98778.41;5017048;28;19975;-72
2023/10/21 05:23:04;;;;;;;;;;;;;;;11.43;100.00;98795.03;5017164;28;20182;-71
2023/10/21 05:25:29;;;;;;;;;;;;;;;11.39;100.00;98799.94;5019817;28;19929;-72
2023/10/21 05:27:55;;;;;;;;;;;;;;;11.43;100.00;98799.59;5028766;28;19925;-71
2023/10/21 05:30:20;;;;;;;;;;;;;;;11.40;100.00;98801.63;5015053;28;19925;-71
2023/10/21 05:32:45;;;;;;;;;;;;;;;11.47;100.00;98798.22;5030273;28;19921;-72
2023/10/21 05:35:10;;;;;;;;;;;;;;;11.32;100.00;98812.38;5016441;28;19921;-72
2023/10/21 05:37:36;;;;;;;;;;;;;;;11.36;100.00;98821.78;5032958;28;20327;-71
2023/10/21 05:40:05;;;;;;;;;;;;;;;11.37;100.00;98828.00;5017658;28;20459;-72
2023/10/21 05:42:30;;;;;;;;;;;;;;;11.32;100.00;98830.38;5001118;28;20318;-72
2023/10/21 05:44:56;;;;;;;;;;;;;;;11.20;100.00;98828.06;5011864;28;19921;-72
2023/10/21 05:47:21;;;;;;;;;;;;;;;11.17;100.00;98836.44;4996678;28;20359;-72
2023/10/21 05:49:46;;;;;;;;;;;;;;;11.16;100.00;98842.81;5018269;28;20364;-72
2023/10/21 05:52:11;;;;;;;;;;;;;;;11.07;100.00;98839.34;5015789;28;20439;-71
2023/10/21 05:54:36;;;;;;;;;;;;;;;11.07;100.00;98846.56;5014139;28;19943;-72
2023/10/21 05:57:02;;;;;;;;;;;;;;;11.03;100.00;98864.84;5014310;28;19939;-72
2023/10/21 05:59:28;;;;;;;;;;;;;;;10.98;100.00;98871.75;5014735;28;20283;-72
2023/10/21 06:01:53;;;;;;;;;;;;;;;10.97;100.00;98876.31;5014754;28;19921;-72
2023/10/21 06:04:18;;;;;;;;;;;;;;;11.00;100.00;98881.31;5033490;28;20385;-71
2023/10/21 06:06:44;;;;;;;;;;;;;;;11.01;100.00;98884.84;5011909;28;19972;-72
2023/10/21 06:09:12;;;;;;;;;;;;;;;10.94;100.00;98882.00;5029240;28;19959;-72
2023/10/21 06:11:38;;;;;;;;;;;;;;;10.94;100.00;98887.38;5016426;28;19925;-72
2023/10/21 06:14:03;;;;;;;;;;;;;;;10.94;100.00;98893.56;5026024;28;19995;-71
2023/10/21 06:16:29;;;;;;;;;;;;;;;10.98;100.00;98904.81;5018162;28;20510;-72
2023/10/21 06:18:54;;;;;;;;;;;;;;;11.07;100.00;98906.47;5015692;28;19944;-71
2023/10/21 06:21:19;;;;;;;;;;;;;;;11.13;100.00;98904.13;5017580;28;20016;-71
2023/10/21 06:23:44;;;;;;;;;;;;;;;11.25;100.00;98903.59;5017501;28;20039;-71
2023/10/21 06:26:11;;;;;;;;;;;;;;;11.29;100.00;98903.25;5018086;28;19928;-72
2023/10/21 06:28:37;;;;;;;;;;;;;;;11.36;100.00;98906.94;5021543;28;19921;-71
2023/10/21 06:31:03;;;;;;;;;;;;;;;11.43;100.00;98905.22;5002570;28;19947;-71
2023/10/21 06:33:28;;;;;;;;;;;;;;;11.45;100.00;98913.13;5016727;28;19922;-72
2023/10/21 06:35:53;;;;;;;;;;;;;;;11.48;100.00;98913.59;5019676;28;19921;-71
2023/10/21 06:38:18;;;;;;;;;;;;;;;11.61;100.00;98921.13;5002461;28;20449;-71
2023/10/21 06:40:44;;;;;;;;;;;;;;;11.66;100.00;98916.06;5013863;28;19933;-71
2023/10/21 06:43:09;;;;;;;;;;;;;;;11.75;100.00;98924.94;5029517;28;20142;-72
2023/10/21 06:45:36;;;;;;;;;;;;;;;11.86;100.00;98929.09;5018697;28;19921;-71
2023/10/21 06:48:04;;;;;;;;;;;;;;;11.90;100.00;98935.78;5016272;28;19929;-71
2023/10/21 06:50:29;;;;;;;;;;;;;;;11.90;100.00;98935.78;5018262;28;20015;-72
2023/10/21 06:52:54;;;;;;;;;;;;;;;11.97;100.00;98944.00;5015262;28;19921;-71
2023/10/21 06:55:19;;;;;;;;;;;;;;;11.99;100.00;98952.75;5016213;28;19931;-71
2023/10/21 06:57:45;;;;;;;;;;;;;;;12.09;100.00;98956.09;5019167;28;19960;-72
2023/10/21 07:00:12;;;;;;;;;;;;;;;12.10;100.00;98955.06;5001531;28;19921;-71
2023/10/21 07:02:37;;;;;;;;;;;;;;;12.15;100.00;98965.28;5017386;28;20433;-71
2023/10/21 07:05:02;;;;;;;;;;;;;;;12.27;100.00;98965.75;5013989;28;19921;-73
2023/10/21 07:07:27;;;;;;;;;;;;;;;12.27;100.00;98969.28;5012015;28;19960;-71
2023/10/21 07:09:53;;;;;;;;;;;;;;;12.39;100.00;98975.09;5013988;28;20024;-74
2023/10/21 07:12:19;;;;;;;;;;;;;;;12.43;100.00;98971.03;5015603;28;20089;-73
2023/10/21 07:14:44;;;;;;;;;;;;;;;12.48;100.00;98983.97;5027874;28;19948;-71
2023/10/21 07:17:09;;;;;;;;;;;;;;;12.52;100.00;98987.13;5016081;28;19956;-72
2023/10/21 07:19:35;;;;;;;;;;;;;;;12.53;100.00;98986.97;5016744;28;20009;-72
2023/10/21 07:22:00;;;;;;;;;;;;;;;12.57;100.00;98995.50;5016141;28;20322;-74
2023/10/21 07:24:26;;;;;;;;;;;;;;;12.64;100.00;98988.41;5013948;28;20324;-70
2023/10/21 07:26:51;;;;;;;;;;;;;;;12.63;100.00;99000.19;5012514;28;20007;-72
2023/10/21 07:29:18;;;;;;;;;;;;;;;12.62;100.00;99011.13;5015385;28;20380;-73
2023/10/21 07:31:43;;;;;;;;;;;;;;;12.62;100.00;99008.41;5016080;28;19947;-70
2023/10/21 07:34:09;;;;;;;;;;;;;;;12.57;100.00;99017.91;5018106;28;20349;-72
2023/10/21 07:36:34;;;;;;;;;;;;;;;12.41;100.00;99034.97;5014273;28;20364;-70
2023/10/21 07:38:59;;;;;;;;;;;;;;;12.41;100.00;99031.44;5014879;28;19925;-72
2023/10/21 07:41:24;;;;;;;;;;;;;;;12.34;100.00;99051.97;5013607;28;19968;-73
2023/10/21 07:43:49;;;;;;;;;;;;;;;12.26;100.00;99063.63;5010879;28;19924;-72
2023/10/21 07:46:15;;;;;;;;;;;;;;;12.15;100.00;99071.06;5014405;28;19921;-70
2023/10/21 07:48:40;;;;;;;;;;;;;;;12.10;100.00;99076.13;5014404;28;19964;-73
2023/10/21 07:51:05;;;;;;;;;;;;;;;12.08;100.00;99086.22;4998878;28;20028;-74
2023/10/21 07:53:31;;;;;;;;;;;;;;;12.10;100.00;99092.25;4998040;28;20329;-73
2023/10/21 07:55:56;;;;;;;;;;;;;;;12.09;100.00;99114.78;5014810;28;20007;-77
2023/10/21 07:58:22;;;;;;;;;;;;;;;12.07;100.00;99105.19;5023378;28;19927;-76
2023/10/21 08:00:47;;;;;;;;;;;;;;;11.95;100.00;99084.03;5010494;28;19928;-71
2023/10/21 08:03:13;;;;;;;;;;;;;;;11.98;100.00;99105.22;5014381;28;19925;-73
2023/10/21 08:05:38;;;;;;;;;;;;;;;11.96;100.00;99112.59;5011850;28;19921;-76
2023/10/21 08:08:03;;;;;;;;;;;;;;;11.97;100.00;99125.03;5011991;28;19936;-72
2023/10/21 08:10:29;;;;;;;;;;;;;;;11.97;100.00;99122.34;5012077;28;20501;-74
2023/10/21 08:12:55;;;;;;;;;;;;;;;12.02;100.00;99124.56;5011247;28;20417;-71
2023/10/21 08:15:20;;;;;;;;;;;;;;;12.11;100.00;99133.44;5013211;28;20438;-74
2023/10/21 08:17:45;;;;;;;;;;;;;;;12.03;100.00;99112.78;5012143;28;20486;-74
2023/10/21 08:20:10;;;;;;;;;;;;;;;12.24;100.00;99128.38;5012353;28;19921;-74
2023/10/21 08:22:36;;;;;;;;;;;;;;;12.40;100.00;99130.19;5010677;28;19985;-75
2023/10/21 08:25:01;;;;;;;;;;;;;;;12.56;100.00;99129.28;5021713;28;19991;-72
2023/10/21 08:27:26;;;;;;;;;;;;;;;12.72;100.00;99138.28;5011092;28;19975;-75
2023/10/21 08:29:53;;;;;;;;;;;;;;;12.72;100.00;99116.75;4991725;28;20327;-74
2023/10/21 08:32:18;;;;;;;;;;;;;;;12.74;100.00;99131.69;5012567;28;20557;-73
2023/10/21 08:34:43;;;;;;;;;;;;;;;12.79;100.00;99141.13;5011852;28;20416;-73
2023/10/21 08:37:08;;;;;;;;;;;;;;;12.72;100.00;99146.38;5020729;28;20268;-72
2023/10/21 08:39:34;;;;;;;;;;;;;;;12.68;100.00;99150.41;5004136;28;20387;-73
2023/10/21 08:41:59;;;;;;;;;;;;;;;12.69;100.00;99144.88;5021622;28;20100;-74
2023/10/21 08:44:24;;;;;;;;;;;;;;;12.78;100.00;99142.97;4989406;28;19960;-73
2023/10/21 08:46:50;;;;;;;;;;;;;;;12.93;100.00;99139.53;5008981;28;20356;-73
2023/10/21 08:49:15;;;;;;;;;;;;;;;12.99;100.00;99142.34;5012439;28;19927;-75
2023/10/21 08:51:41;;;;;;;;;;;;;;;13.13;100.00;99139.94;5010439;28;19960;-73
2023/10/21 08:54:06;;;;;;;;;;;;;;;13.15;100.00;99143.28;5023391;28;19967;-73
2023/10/21 08:56:35;;;;;;;;;;;;;;;13.30;100.00;99141.50;5020255;28;19921;-72
2023/10/21 08:59:01;;;;;;;;;;;;;;;13.49;100.00;99160.97;5010394;28;20607;-72
2023/10/21 09:01:26;;;;;;;;;;;;;;;13.47;100.00;99152.22;5011384;28;19921;-74
2023/10/21 09:03:51;;;;;;;;;;;;;;;13.56;100.00;99143.00;5027623;28;20461;-76
2023/10/21 09:06:17;;;;;;;;;;;;;;;13.58;100.00;99167.13;5028539;28;20423;-73
2023/10/21 09:08:43;;;;;;;;;;;;;;;13.47;100.00;99157.59;5011982;28;19920;-72
2023/10/21 09:11:12;;;;;;;;;;;;;;;13.62;100.00;99160.34;5028779;28;19932;-73
2023/10/21 09:13:38;;;;;;;;;;;;;;;13.59;100.00;99160.72;5008522;28;20408;-73
2023/10/21 09:16:04;;;;;;;;;;;;;;;13.37;100.00;99176.69;5011001;28;19924;-73
2023/10/21 09:18:34;;;;;;;;;;;;;;;13.32;100.00;99165.59;5011738;28;20008;-72
2023/10/21 09:21:00;;;;;;;;;;;;;;;13.25;100.00;99178.09;5023154;28;19991;-71
2023/10/21 09:23:26;;;;;;;;;;;;;;;13.33;100.00;99178.03;5010453;28;19925;-74
2023/10/21 09:25:52;;;;;;;;;;;;;;;13.43;100.00;99184.06;5012949;28;19963;-72
2023/10/21 09:28:21;;;;;;;;;;;;;;;13.41;100.00;99188.78;5010286;28;19931;-75
2023/10/21 09:30:55;;;;;;;;;;;;;;;13.63;100.00;99211.41;5030112;28;20015;-72
2023/10/21 09:33:20;;;;;;;;;;;;;;;13.77;100.00;99211.66;5014389;28;19940;-75
2023/10/21 09:35:45;;;;;;;;;;;;;;;13.84;100.00;99207.19;5028487;28;20391;-73
2023/10/21 09:38:17;;;;;;;;;;;;;;;13.86;100.00;99209.72;5024873;28;20413;-74
2023/10/21 09:40:42;;;;;;;;;;;;;;;13.84;100.00;99212.59;5029542;28;19925;-72
2023/10/21 09:43:08;;;;;;;;;;;;;;;13.91;100.00;99218.94;5008705;28;20711;-75
2023/10/21 09:45:34;;;;;;;;;;;;;;;13.65;100.00;99216.59;5007310;28;19921;-72
2023/10/21 09:47:59;;;;;;;;;;;;;;;13.65;100.00;99220.16;4994425;28;20080;-73
2023/10/21 09:50:24;;;;;;;;;;;;;;;13.78;100.00;99218.69;5012675;28;19925;-73
2023/10/21 09:53:02;;;;;;;;;;;;;;;13.78;100.00;99226.78;5027133;28;19928;-73
2023/10/21 09:55:28;;;;;;;;;;;;;;;13.74;100.00;99236.28;5031529;28;20004;-73
2023/10/21 09:57:53;;;;;;;;;;;;;;;13.78;100.00;99227.66;5009586;28;19921;-71
2023/10/21 10:00:19;;;;;;;;;;;;;;;13.91;100.00;99239.66;5015822;28;20042;-71
2023/10/21 10:02:47;;;;;;;;;;;;;;;14.03;100.00;99240.94;5025659;28;20323;-72
2023/10/21 10:05:14;;;;;;;;;;;;;;;14.42;100.00;99230.97;5014787;28;19960;-72
2023/10/21 10:07:39;;;;;;;;;;;;;;;14.15;100.00;99252.13;5024582;28;20008;-74
2023/10/21 10:10:05;;;;;;;;;;;;;;;14.08;100.00;99241.25;5012711;28;19925;-71
2023/10/21 10:12:35;;;;;;;;;;;;;;;13.89;100.00;99274.94;5013478;28;19943;-71
2023/10/21 10:15:00;;;;;;;;;;;;;;;14.04;100.00;99257.94;5012718;28;19921;-72
2023/10/21 10:17:44;;;;;;;;;;;;;;;13.89;100.00;99274.13;4997882;28;20462;-71
2023/10/21 10:20:18;;;;;;;;;;;;;;;13.88;100.00;99261.63;5015404;28;20120;-72
2023/10/21 10:22:43;;;;;;;;;;;;;;;14.00;100.00;99262.88;5015615;28;19925;-72
2023/10/21 10:25:11;;;;;;;;;;;;;;;14.22;100.00;99271.13;5013357;28;19943;-73
2023/10/21 10:27:40;;;;;;;;;;;;;;;14.00;100.00;99270.16;5028744;28;19932;-72
2023/10/21 10:30:19;;;;;;;;;;;;;;;13.76;100.00;99270.13;5016752;28;20252;-73
2023/10/21 10:32:47;;;;;;;;;;;;;;;13.86;100.00;99274.47;5014078;28;19921;-75
2023/10/21 10:35:23;;;;;;;;;;;;;;;13.99;100.00;99274.69;4996638;28;20371;-72
2023/10/21 10:37:52;;;;;;;;;;;;;;;14.14;100.00;99282.84;5011359;28;20303;-72
2023/10/21 10:40:18;;;;;;;;;;;;;;;14.49;100.00;99279.66;5000474;28;19925;-72
2023/10/21 10:42:43;;;;;;;;;;;;;;;14.81;100.00;99286.66;5032841;28;19975;-74
2023/10/21 10:45:09;;;;;;;;;;;;;;;14.55;100.00;99297.84;4999893;28;20606;-72
2023/10/21 10:47:34;;;;;;;;;;;;;;;14.15;100.00;99295.31;5010901;28;19932;-71
2023/10/21 10:50:00;;;;;;;;;;;;;;;15.03;100.00;99288.59;5029145;28;20365;-72
2023/10/21 10:52:32;;;;;;;;;;;;;;;15.57;100.00;99253.09;5030711;28;19928;-73
2023/10/21 10:55:06;;;;;;;;;;;;;;;15.63;100.00;99273.13;5014358;28;19921;-72
2023/10/21 10:57:31;;;;;;;;;;;;;;;15.20;100.00;99297.34;5028793;28;20448;-71
2023/10/21 10:59:56;;;;;;;;;;;;;;;15.76;100.00;99302.19;5014229;28;19967;-72
2023/10/21 11:02:23;;;;;;;;;;;;;;;16.24;100.00;99285.41;5008896;28;20421;-73
2023/10/21 11:04:49;;;;;;;;;;;;;;;16.40;100.00;99287.00;5010362;28;19964;-74
2023/10/21 11:07:15;;;;;;;;;;;;;;;16.51;100.00;99307.31;5010080;28;20020;-72
2023/10/21 11:09:40;;;;;;;;;;;;;;;16.73;100.00;99305.41;5008638;28;20265;-74
2023/10/21 11:12:05;;;;;;;;;;;;;;;16.14;100.00;99314.72;5019538;28;19931;-74
2023/10/21 11:14:31;;;;;;;;;;;;;;;15.85;100.00;99303.75;5010599;28;19921;-74
2023/10/21 11:16:56;;;;;;;;;;;;;;;15.43;100.00;99305.34;5009077;28;19999;-72
2023/10/21 11:19:22;;;;;;;;;;;;;;;15.72;100.00;99301.75;5021403;28;19927;-74
2023/10/21 11:21:51;;;;;;;;;;;;;;;16.11;100.00;99309.69;5009924;28;20344;-73
2023/10/21 11:24:18;;;;;;;;;;;;;;;16.28;100.00;99288.59;5008793;28;19997;-71
2023/10/21 11:26:44;;;;;;;;;;;;;;;16.17;100.00;99325.97;5022499;28;19962;-72
2023/10/21 11:29:09;;;;;;;;;;;;;;;15.30;100.00;99317.66;5008900;28;20295;-72
2023/10/21 11:31:35;;;;;;;;;;;;;;;14.90;100.00;99316.28;5008852;28;20111;-73
2023/10/21 11:34:09;;;;;;;;;;;;;;;15.75;100.00;99300.53;4994398;28;20023;-72
2023/10/21 11:36:34;;;;;;;;;;;;;;;16.78;100.00;99312.94;5011426;28;20009;-72
2023/10/21 11:38:59;;;;;;;;;;;;;;;16.21;100.00;99312.88;5006966;28;19925;-73
2023/10/21 11:41:27;;;;;;;;;;;;;;;15.17;100.00;99320.22;5027189;28;19928;-73
2023/10/21 11:43:52;;;;;;;;;;;;;;;15.28;100.00;99321.59;5006985;28;19970;-75
2023/10/21 11:46:17;;;;;;;;;;;;;;;15.37;100.00;99320.44;5011154;28;19975;-71
2023/10/21 11:48:42;;;;;;;;;;;;;;;15.06;100.00;99332.31;5008934;28;20039;-72
2023/10/21 11:51:08;;;;;;;;;;;;;;;15.06;100.00;99324.22;5008554;28;20035;-72
2023/10/21 11:53:33;;;;;;;;;;;;;;;14.90;100.00;99324.38;5007796;28;19925;-72
2023/10/21 11:56:53;;;;;;;;;;;;;;;14.88;100.00;99329.97;5011208;28;20025;-71
2023/10/21 12:02:47;;;;;;;;;;;;;;;14.98;100.00;99335.94;4988478;28;20066;-72
2023/10/21 12:20:29;;;;;;;;;;;;;;;15.89;100.00;99344.84;5015093;28;20290;-74
2023/10/21 12:29:11;;;;;;;;;;;;;;;15.85;100.00;99338.09;4963030;28;20068;-73
2023/10/21 12:37:20;;;;;;;;;;;;;;;16.99;100.00;99333.75;5031188;28;19927;-72
2023/10/21 12:39:46;;;;;;;;;;;;;;;17.51;100.00;99371.41;5020089;28;19987;-75
2023/10/21 12:42:28;;;;;;;;;;;;;;;16.75;100.00;99356.69;5016123;28;20116;-72
2023/10/21 12:44:55;;;;;;;;;;;;;;;16.72;100.00;99359.78;5019113;28;19970;-73
2023/10/21 12:47:20;;;;;;;;;;;;;;;17.07;100.00;99357.16;5021449;28;20033;-72
2023/10/21 12:49:48;;;;;;;;;;;;;;;17.37;100.00;99343.38;5019886;28;20347;-70
2023/10/21 12:52:14;;;;;;;;;;;;;;;17.53;97.78;99355.75;5021538;28;20015;-69
2023/10/21 12:54:40;;;;;;;;;;;;;;;17.12;100.00;99345.72;5019255;28;20566;-72
2023/10/21 12:57:07;;;;;;;;;;;;;;;16.53;100.00;99350.47;5006422;28;19963;-71
2023/10/21 12:59:33;;;;;;;;;;;;;;;15.85;100.00;99357.06;5023697;28;19921;-71
2023/10/21 13:01:58;;;;;;;;;;;;;;;15.42;100.00;99345.06;5023062;28;19971;-74